createdAt,value
2023-04-07T00:01:43.684Z,9.82
2023-04-07T00:04:47.056Z,9.45
2023-04-07T00:07:56.529Z,11.90
2023-04-07T00:11:01.024Z,10.73
2023-04-07T00:14:04.577Z,9.60
2023-04-07T00:17:07.921Z,10.68
2023-04-07T00:20:11.626Z,9.02
2023-04-07T00:23:15.198Z,9.23
2023-04-07T00:26:18.533Z,9.68
2023-04-07T00:29:22.084Z,8.45
2023-04-07T00:32:25.492Z,7.85
2023-04-07T00:35:28.911Z,8.95
2023-04-07T00:38:34.369Z,8.77
2023-04-07T00:41:37.709Z,10.48
2023-04-07T00:44:41.218Z,7.50
2023-04-07T00:47:44.857Z,8.30
2023-04-07T00:50:48.271Z,17.10
2023-04-07T00:53:51.772Z,8.35
2023-04-07T00:56:55.075Z,6.95
2023-04-07T00:59:58.599Z,6.82
2023-04-07T01:03:15.455Z,7.75
2023-04-07T01:06:25.200Z,6.13
2023-04-07T01:09:42.419Z,7.43
2023-04-07T01:13:08.856Z,6.13
2023-04-07T01:16:17.642Z,5.65
2023-04-07T01:19:41.028Z,6.07
2023-04-07T01:22:54.875Z,4.70
2023-04-07T01:26:08.470Z,6.03
2023-04-07T01:29:27.797Z,7.80
2023-04-07T01:32:32.579Z,5.32
2023-04-07T01:35:49.099Z,4.07
2023-04-07T01:38:53.611Z,3.75
2023-04-07T01:42:05.500Z,4.38
2023-04-07T01:45:10.460Z,3.72
2023-04-07T01:48:14.928Z,3.30
2023-04-07T01:51:19.701Z,4.05
2023-04-07T01:54:28.028Z,3.35
2023-04-07T01:57:32.324Z,2.72
2023-04-07T02:00:42.663Z,3.28
2023-04-07T02:03:57.284Z,3.55
2023-04-07T02:07:04.822Z,3.53
2023-04-07T02:10:18.403Z,3.72
2023-04-07T02:13:23.711Z,3.90
2023-04-07T02:16:32.482Z,3.03
2023-04-07T02:19:48.074Z,3.63
2023-04-07T02:22:52.228Z,3.58
2023-04-07T02:25:58.856Z,3.35
2023-04-07T02:29:03.711Z,4.60
2023-04-07T02:32:07.783Z,4.03
2023-04-07T02:35:12.829Z,4.75
2023-04-07T02:38:16.370Z,5.28
2023-04-07T02:41:24.486Z,5.03
2023-04-07T02:44:32.672Z,6.18
2023-04-07T02:53:58.990Z,4.70
2023-04-07T02:57:02.925Z,6.05
2023-04-07T03:00:07.084Z,6.53
2023-04-07T03:03:33.503Z,6.80
2023-04-07T03:06:45.480Z,4.70
2023-04-07T03:09:51.888Z,4.40
2023-04-07T03:12:58.303Z,4.18
2023-04-07T03:16:03.631Z,5.07
2023-04-07T03:19:14.297Z,4.28
2023-04-07T03:22:21.520Z,4.43
2023-04-07T03:25:32.446Z,3.85
2023-04-07T03:28:39.121Z,3.47
2023-04-07T03:31:42.717Z,5.63
2023-04-07T03:34:48.779Z,4.85
2023-04-07T03:37:53.030Z,3.55
2023-04-07T03:41:11.386Z,3.70
2023-04-07T03:44:15.323Z,5.03
2023-04-07T03:47:19.193Z,4.82
2023-04-07T03:50:29.117Z,5.45
2023-04-07T03:53:43.027Z,3.33
2023-04-07T03:57:22.091Z,3.33
2023-04-07T04:00:28.109Z,3.60
2023-04-07T04:03:43.537Z,2.90
2023-04-07T04:06:58.273Z,3.78
2023-04-07T04:10:12.821Z,1.95
2023-04-07T04:13:20.063Z,3.15
2023-04-07T04:16:25.326Z,2.10
2023-04-07T04:19:33.220Z,2.13
2023-04-07T04:22:42.197Z,2.30
2023-04-07T04:25:46.217Z,3.03
2023-04-07T04:28:52.524Z,1.63
2023-04-07T04:31:59.841Z,2.17
2023-04-07T04:35:09.405Z,1.10
2023-04-07T04:38:26.353Z,2.38
2023-04-07T04:41:37.926Z,2.65
2023-04-07T04:44:41.934Z,2.85
2023-04-07T04:47:45.749Z,1.67
2023-04-07T04:50:49.715Z,3.72
2023-04-07T04:53:55.807Z,4.70
2023-04-07T04:57:02.466Z,2.13
2023-04-07T05:00:08.510Z,1.13
2023-04-07T05:03:13.347Z,2.47
2023-04-07T05:06:21.071Z,1.00
2023-04-07T05:09:31.260Z,1.50
2023-04-07T05:12:48.763Z,2.60
2023-04-07T05:15:54.815Z,1.25
2023-04-07T05:19:00.400Z,2.28
2023-04-07T05:22:03.913Z,0.80
2023-04-07T05:25:13.079Z,1.70
2023-04-07T05:28:23.404Z,0.73
2023-04-07T05:31:28.718Z,1.05
2023-04-07T05:34:37.557Z,3.33
2023-04-07T05:37:41.556Z,0.60
2023-04-07T05:40:45.105Z,1.75
2023-04-07T05:43:55.297Z,1.58
2023-04-07T05:47:20.054Z,2.13
2023-04-07T05:50:32.745Z,0.90
2023-04-07T05:53:41.361Z,1.60
2023-04-07T05:56:44.782Z,2.63
2023-04-07T05:59:48.786Z,4.38
2023-04-07T06:02:56.770Z,1.85
2023-04-07T06:06:01.633Z,1.88
2023-04-07T06:09:06.996Z,2.08
2023-04-07T06:12:15.786Z,4.35
2023-04-07T06:15:25.383Z,1.30
2023-04-07T06:18:53.615Z,2.60
2023-04-07T06:21:57.125Z,2.20
2023-04-07T06:25:00.666Z,3.35
2023-04-07T06:32:04.377Z,2.17
2023-04-07T06:35:20.176Z,1.70
2023-04-07T06:38:24.200Z,3.00
2023-04-07T06:41:27.780Z,4.10
2023-04-07T06:44:33.958Z,7.18
2023-04-07T06:47:40.743Z,2.17
2023-04-07T06:50:50.782Z,1.73
2023-04-07T06:53:54.285Z,2.15
2023-04-07T06:56:58.150Z,2.97
2023-04-07T07:00:02.097Z,2.50
2023-04-07T07:03:05.695Z,2.78
2023-04-07T07:06:09.389Z,2.70
2023-04-07T07:09:12.897Z,6.15
2023-04-07T07:12:17.926Z,4.32
2023-04-07T07:15:32.499Z,2.90
2023-04-07T07:18:38.175Z,2.45
2023-04-07T07:21:41.677Z,1.63
2023-04-07T07:24:45.473Z,2.15
2023-04-07T07:27:54.101Z,2.67
2023-04-07T07:30:57.689Z,1.95
2023-04-07T07:34:03.552Z,3.47
2023-04-07T07:37:09.743Z,3.88
2023-04-07T07:40:13.226Z,3.35
2023-04-07T07:43:18.540Z,3.00
2023-04-07T07:46:23.537Z,2.88
2023-04-07T07:49:27.205Z,3.10
2023-04-07T07:52:30.804Z,3.70
2023-04-07T07:55:38.913Z,3.90
2023-04-07T07:58:47.537Z,6.18
2023-04-07T08:01:51.264Z,2.55
2023-04-07T08:05:02.323Z,2.58
2023-04-07T08:08:09.523Z,2.78
2023-04-07T08:11:12.923Z,2.40
2023-04-07T08:14:16.800Z,2.95
2023-04-07T08:17:21.958Z,4.53
2023-04-07T08:20:25.576Z,3.60
2023-04-07T08:23:32.915Z,2.90
2023-04-07T08:26:47.877Z,5.43
2023-04-07T08:30:07.872Z,6.35
2023-04-07T08:33:11.463Z,3.15
2023-04-07T08:36:16.900Z,4.18
2023-04-07T08:39:20.493Z,3.38
2023-04-07T08:42:28.797Z,2.42
2023-04-07T08:45:38.033Z,3.28
2023-04-07T08:48:46.881Z,4.50
2023-04-07T08:51:58.222Z,9.27
2023-04-07T08:55:04.128Z,4.70
2023-04-07T08:58:16.156Z,3.47
2023-04-07T09:01:20.740Z,3.38
2023-04-07T09:04:35.953Z,5.20
2023-04-07T09:07:45.742Z,3.20
2023-04-07T09:10:56.662Z,6.57
2023-04-07T09:14:02.390Z,4.63
2023-04-07T09:17:05.988Z,5.30
2023-04-07T09:20:09.906Z,7.03
2023-04-07T09:23:37.481Z,5.68
2023-04-07T09:26:46.228Z,4.63
2023-04-07T09:30:12.457Z,5.78
2023-04-07T09:33:30.274Z,4.07
2023-04-07T09:36:52.528Z,7.78
2023-04-07T09:39:56.098Z,5.07
2023-04-07T09:43:03.818Z,4.70
2023-04-07T09:46:21.001Z,6.45
2023-04-07T09:49:29.518Z,5.40
2023-04-07T09:52:55.930Z,5.32
2023-04-07T09:55:59.559Z,7.78
2023-04-07T09:59:04.034Z,6.22
2023-04-07T10:02:08.760Z,4.13
2023-04-07T10:05:12.685Z,4.28
2023-04-07T10:08:16.709Z,7.38
2023-04-07T10:11:27.074Z,4.53
2023-04-07T10:14:40.322Z,3.50
2023-04-07T10:17:51.203Z,4.82
2023-04-07T10:21:03.507Z,4.93
2023-04-07T10:24:37.508Z,7.80
2023-04-07T10:27:55.710Z,6.43
2023-04-07T10:30:59.916Z,5.20
2023-04-07T10:34:04.432Z,5.90
2023-04-07T10:37:18.571Z,6.10
2023-04-07T10:40:22.458Z,9.98
2023-04-07T10:43:42.614Z,6.97
2023-04-07T10:46:49.311Z,6.90
2023-04-07T10:50:17.785Z,5.43
2023-04-07T10:53:21.591Z,5.50
2023-04-07T10:56:26.565Z,7.43
2023-04-07T10:59:33.751Z,6.15
2023-04-07T11:05:43.507Z,5.70
2023-04-07T11:08:49.663Z,8.95
2023-04-07T11:11:56.773Z,6.13
2023-04-07T11:15:17.205Z,6.72
2023-04-07T11:18:22.682Z,6.07
2023-04-07T11:21:26.245Z,7.38
2023-04-07T11:24:41.739Z,8.82
2023-04-07T11:27:46.221Z,10.45
2023-04-07T11:30:54.900Z,11.20
2023-04-07T11:34:00.312Z,10.25
2023-04-07T11:37:24.116Z,10.15
2023-04-07T11:40:36.212Z,7.80
2023-04-07T11:43:42.940Z,8.45
2023-04-07T11:47:01.587Z,12.63
2023-04-07T11:50:05.301Z,24.20
2023-04-07T11:53:08.824Z,17.38
2023-04-07T11:56:17.474Z,12.57
2023-04-07T11:59:25.498Z,16.00
2023-04-07T12:02:36.421Z,11.43
2023-04-07T12:05:44.603Z,11.82
2023-04-07T12:08:48.276Z,8.55
2023-04-07T12:11:51.982Z,9.38
2023-04-07T12:15:00.026Z,9.27
2023-04-07T12:18:06.880Z,11.18
2023-04-07T12:21:13.245Z,9.95
2023-04-07T12:24:19.702Z,10.18
2023-04-07T12:27:55.670Z,11.50
2023-04-07T12:31:01.761Z,9.45
2023-04-07T12:34:14.264Z,9.95
2023-04-07T12:37:17.801Z,10.70
2023-04-07T12:40:44.363Z,13.80
2023-04-07T12:43:50.483Z,13.70
2023-04-07T12:46:59.663Z,10.93
2023-04-07T12:50:06.228Z,12.40
2023-04-07T12:53:10.098Z,10.05
2023-04-07T12:56:38.744Z,11.38
2023-04-07T12:59:48.121Z,10.40
2023-04-07T13:03:17.052Z,10.73
2023-04-07T13:06:23.302Z,9.38
2023-04-07T13:09:29.884Z,9.23
2023-04-07T13:12:36.335Z,7.40
2023-04-07T13:15:42.878Z,6.95
2023-04-07T13:18:49.087Z,8.63
2023-04-07T13:21:54.268Z,8.57
2023-04-07T13:24:59.313Z,9.25
2023-04-07T13:28:07.296Z,10.18
2023-04-07T13:31:32.891Z,8.25
2023-04-07T13:34:50.713Z,10.07
2023-04-07T13:38:03.053Z,9.60
2023-04-07T13:41:07.515Z,9.27
2023-04-07T13:44:59.594Z,10.15
2023-04-07T13:48:03.441Z,8.82
2023-04-07T13:51:09.563Z,10.35
2023-04-07T13:54:31.889Z,9.82
2023-04-07T13:57:44.702Z,10.45
2023-04-07T14:00:48.296Z,9.20
2023-04-07T14:03:52.183Z,8.15
2023-04-07T14:06:59.240Z,9.88
2023-04-07T14:10:05.766Z,9.40
2023-04-07T14:13:09.110Z,10.43
2023-04-07T14:16:13.416Z,11.90
2023-04-07T14:19:16.940Z,11.07
2023-04-07T14:22:26.697Z,9.68
2023-04-07T14:25:32.022Z,11.68
2023-04-07T14:28:38.602Z,12.25
2023-04-07T14:31:44.979Z,10.63
2023-04-07T14:35:04.544Z,10.13
2023-04-07T14:38:07.962Z,9.45
2023-04-07T14:41:13.787Z,7.10
2023-04-07T14:44:17.616Z,8.27
2023-04-07T14:47:24.307Z,10.02
2023-04-07T14:51:06.122Z,9.95
2023-04-07T14:54:15.839Z,13.25
2023-04-07T14:57:20.464Z,11.88
2023-04-07T15:00:29.548Z,16.13
2023-04-07T15:03:34.206Z,20.95
2023-04-07T15:06:37.854Z,25.48
2023-04-07T15:09:44.211Z,26.13
2023-04-07T15:12:47.982Z,28.63
2023-04-07T15:15:51.535Z,27.80
2023-04-07T15:19:03.767Z,24.45
2023-04-07T15:22:08.475Z,24.15
2023-04-07T15:25:21.664Z,26.50
2023-04-07T15:28:26.661Z,18.92
2023-04-07T15:31:41.390Z,26.63
2023-04-07T15:35:10.353Z,21.67
2023-04-07T15:38:19.668Z,27.27
2023-04-07T15:41:26.678Z,28.75
2023-04-07T15:44:48.268Z,23.48
2023-04-07T15:47:58.603Z,24.10
2023-04-07T15:51:14.174Z,17.48
2023-04-07T15:54:17.570Z,23.83
2023-04-07T15:57:23.757Z,22.25
2023-04-07T16:00:33.694Z,21.50
2023-04-07T16:03:40.131Z,24.05
2023-04-07T16:06:47.015Z,21.42
2023-04-07T16:09:56.604Z,20.88
2023-04-07T16:13:02.599Z,18.60
2023-04-07T16:16:15.147Z,20.85
2023-04-07T16:19:18.504Z,19.10
2023-04-07T16:22:39.905Z,19.23
2023-04-07T16:29:49.365Z,18.08
2023-04-07T16:36:40.984Z,19.13
2023-04-07T16:40:10.144Z,16.60
2023-04-07T16:43:19.350Z,16.38
2023-04-07T16:47:12.864Z,16.30
2023-04-07T16:50:22.592Z,18.60
2023-04-07T16:54:02.985Z,19.80
2023-04-07T16:57:31.387Z,21.13
2023-04-07T17:00:37.681Z,20.75
2023-04-07T17:03:41.673Z,15.85
2023-04-07T17:06:51.272Z,14.27
2023-04-07T17:09:54.814Z,13.80
2023-04-07T17:12:58.156Z,12.20
2023-04-07T17:16:26.797Z,12.23
2023-04-07T17:19:30.405Z,13.82
2023-04-07T17:22:59.336Z,13.73
2023-04-07T17:26:02.778Z,14.75
2023-04-07T17:29:06.326Z,12.20
2023-04-07T17:32:37.456Z,12.73
2023-04-07T17:35:41.100Z,15.15
2023-04-07T17:38:51.755Z,14.60
2023-04-07T17:41:58.322Z,17.73
2023-04-07T17:45:08.981Z,15.00
2023-04-07T17:48:15.328Z,13.50
2023-04-07T17:51:21.510Z,9.65
2023-04-07T17:54:53.570Z,10.35
2023-04-07T17:58:01.485Z,10.32
2023-04-07T18:01:29.482Z,8.68
2023-04-07T18:04:41.051Z,8.13
2023-04-07T18:08:09.166Z,9.15
2023-04-07T18:11:17.927Z,9.27
2023-04-07T18:14:26.868Z,10.18
2023-04-07T18:17:32.968Z,11.73
2023-04-07T18:20:39.359Z,10.15
2023-04-07T18:23:43.111Z,11.90
2023-04-07T18:26:46.819Z,12.20
2023-04-07T18:29:53.308Z,9.15
2023-04-07T18:32:56.967Z,10.32
2023-04-07T18:36:25.281Z,10.40
2023-04-07T18:39:32.847Z,9.80
2023-04-07T18:42:39.324Z,9.10
2023-04-07T18:45:44.004Z,9.20
2023-04-07T18:48:47.320Z,8.77
2023-04-07T18:51:57.224Z,9.70
2023-04-07T18:55:25.693Z,8.77
2023-04-07T18:58:30.081Z,10.90
2023-04-07T19:01:37.233Z,11.07
2023-04-07T19:04:41.282Z,12.20
2023-04-07T19:07:50.973Z,12.07
2023-04-07T19:10:54.378Z,11.07
2023-04-07T19:14:01.079Z,9.45
2023-04-07T19:17:31.081Z,8.82
2023-04-07T19:20:42.559Z,8.45
2023-04-07T19:24:35.421Z,8.43
2023-04-07T19:27:40.230Z,8.55
2023-04-07T19:30:49.283Z,7.40
2023-04-07T19:33:52.850Z,8.75
2023-04-07T19:36:59.292Z,9.10
2023-04-07T19:40:03.639Z,9.95
2023-04-07T19:43:07.845Z,9.20
2023-04-07T19:46:17.113Z,7.32
2023-04-07T19:49:57.556Z,6.95
2023-04-07T19:53:04.240Z,6.00
2023-04-07T19:56:15.114Z,5.30
2023-04-07T19:59:18.447Z,4.40
2023-04-07T20:02:34.081Z,3.92
2023-04-07T20:05:40.592Z,5.25
2023-04-07T20:09:14.819Z,6.55
2023-04-07T20:12:23.552Z,8.80
2023-04-07T20:15:39.134Z,10.63
2023-04-07T20:18:44.184Z,10.77
2023-04-07T20:21:47.500Z,8.45
2023-04-07T20:24:50.968Z,7.95
2023-04-07T20:27:57.467Z,6.63
2023-04-07T20:31:01.300Z,5.63
2023-04-07T20:34:04.853Z,4.25
2023-04-07T20:37:32.978Z,5.57
2023-04-07T20:40:37.684Z,5.03
2023-04-07T20:43:46.437Z,4.32
2023-04-07T20:46:49.812Z,4.85
2023-04-07T20:49:55.456Z,5.10
2023-04-07T20:52:58.781Z,5.28
2023-04-07T20:56:08.384Z,4.47
2023-04-07T20:59:14.338Z,4.45
2023-04-07T21:03:07.959Z,4.55
2023-04-07T21:06:12.073Z,5.43
2023-04-07T21:09:19.422Z,4.70
2023-04-07T21:13:12.674Z,5.03
2023-04-07T21:16:16.242Z,4.40
2023-04-07T21:19:25.701Z,4.97
2023-04-07T21:26:01.834Z,4.07
2023-04-07T21:29:14.296Z,4.40
2023-04-07T21:32:17.744Z,4.28
2023-04-07T21:35:21.869Z,4.38
2023-04-07T21:38:25.266Z,5.25
2023-04-07T21:41:31.693Z,5.50
2023-04-07T21:44:34.986Z,5.85
2023-04-07T21:47:38.384Z,6.97
2023-04-07T21:50:54.391Z,6.15
2023-04-07T21:53:58.235Z,9.48
2023-04-07T21:57:04.805Z,7.82
2023-04-07T22:00:09.106Z,8.00
2023-04-07T22:03:20.817Z,9.43
2023-04-07T22:06:24.357Z,9.65
2023-04-07T22:09:27.996Z,8.77
2023-04-07T22:12:31.537Z,8.15
2023-04-07T22:15:35.029Z,8.77
2023-04-07T22:18:41.592Z,7.82
2023-04-07T22:21:45.021Z,9.52
2023-04-07T22:24:48.325Z,10.40
2023-04-07T22:27:53.078Z,11.07
2023-04-07T22:30:56.513Z,11.63
2023-04-07T22:34:03.238Z,13.63
2023-04-07T22:37:06.852Z,12.82
2023-04-07T22:40:11.393Z,11.73
2023-04-07T22:43:14.916Z,10.60
2023-04-07T22:46:22.123Z,11.60
2023-04-07T22:49:25.712Z,9.93
2023-04-07T22:52:31.907Z,11.70
2023-04-07T22:55:36.031Z,12.55
2023-04-07T22:58:42.281Z,11.82
2023-04-07T23:01:56.310Z,32.15
2023-04-07T23:05:08.514Z,7.38
2023-04-07T23:08:37.155Z,7.85
2023-04-07T23:12:05.327Z,9.02
2023-04-07T23:15:11.793Z,10.27
2023-04-07T23:18:15.284Z,9.95
2023-04-07T23:21:22.281Z,7.95
2023-04-07T23:24:25.640Z,7.72
2023-04-07T23:27:29.771Z,9.57
2023-04-07T23:30:38.012Z,9.40
2023-04-07T23:33:46.081Z,9.52
2023-04-07T23:37:23.696Z,10.35
2023-04-07T23:40:30.118Z,14.30
2023-04-07T23:43:34.223Z,7.38
2023-04-07T23:47:05.338Z,15.40
2023-04-07T23:50:09.360Z,9.38
2023-04-07T23:53:12.773Z,10.65
2023-04-07T23:56:19.688Z,10.70
